sensor_id;sensor_type;location;lat;lon;timestamp;pressure;altitude;pressure_sealevel;temperature;humidity
63691;BME280;49837;57.280;27.070;2023-07-13T00:00:01;99568.3;;;8.62;93.98
63691;BME280;49837;57.280;27.070;2023-07-13T00:01:01;99568.27;;;8.6;94.21
63691;BME280;49837;57.280;27.070;2023-07-13T00:02:01;99565.37;;;8.57;94.33
63691;BME280;49837;57.280;27.070;2023-07-13T00:03:03;99567.83;;;8.58;94.36
63691;BME280;49837;57.280;27.070;2023-07-13T00:04:03;99567.27;;;8.62;94.03
63691;BME280;49837;57.280;27.070;2023-07-13T00:05:03;99568.91;;;8.63;93.95
63691;BME280;49837;57.280;27.070;2023-07-13T00:06:03;99567.34;;;8.65;93.85
63691;BME280;49837;57.280;27.070;2023-07-13T00:07:04;99567.22;;;8.67;93.85
63691;BME280;49837;57.280;27.070;2023-07-13T00:08:04;99569.94;;;8.67;93.71
63691;BME280;49837;57.280;27.070;2023-07-13T00:09:04;99564.08;;;8.63;93.74
63691;BME280;49837;57.280;27.070;2023-07-13T00:10:06;99563.84;;;8.61;93.95
63691;BME280;49837;57.280;27.070;2023-07-13T00:11:05;99566.94;;;8.6;94.28
63691;BME280;49837;57.280;27.070;2023-07-13T00:13:09;99565.84;;;8.62;93.88
63691;BME280;49837;57.280;27.070;2023-07-13T00:14:09;99567.33;;;8.55;93.84
63691;BME280;49837;57.280;27.070;2023-07-13T00:15:19;99565.39;;;8.53;94.03
63691;BME280;49837;57.280;27.070;2023-07-13T00:16:12;99565.2;;;8.54;93.85
63691;BME280;49837;57.280;27.070;2023-07-13T00:17:12;99561.84;;;8.55;93.86
63691;BME280;49837;57.280;27.070;2023-07-13T00:18:12;99561.53;;;8.48;93.96
63691;BME280;49837;57.280;27.070;2023-07-13T00:19:13;99561.76;;;8.47;94.33
63691;BME280;49837;57.280;27.070;2023-07-13T00:20:13;99562.66;;;8.44;94.37
63691;BME280;49837;57.280;27.070;2023-07-13T00:21:14;99561.81;;;8.42;94.4
63691;BME280;49837;57.280;27.070;2023-07-13T00:22:14;99561.77;;;8.35;94.58
63691;BME280;49837;57.280;27.070;2023-07-13T00:23:14;99562.92;;;8.35;94.62
63691;BME280;49837;57.280;27.070;2023-07-13T00:24:17;99560.56;;;8.34;94.47
63691;BME280;49837;57.280;27.070;2023-07-13T00:25:16;99557.77;;;8.33;94.84
63691;BME280;49837;57.280;27.070;2023-07-13T00:26:15;99562.68;;;8.3;94.65
63691;BME280;49837;57.280;27.070;2023-07-13T00:27:16;99560.75;;;8.3;94.44
63691;BME280;49837;57.280;27.070;2023-07-13T00:28:16;99560.86;;;8.32;94.53
63691;BME280;49837;57.280;27.070;2023-07-13T00:29:17;99560.58;;;8.28;94.84
63691;BME280;49837;57.280;27.070;2023-07-13T00:30:18;99557.45;;;8.27;95.23
63691;BME280;49837;57.280;27.070;2023-07-13T00:31:17;99550.8;;;8.24;95.14
63691;BME280;49837;57.280;27.070;2023-07-13T00:32:18;99554.65;;;8.23;95.14
63691;BME280;49837;57.280;27.070;2023-07-13T00:33:18;99550.87;;;8.24;95.21
63691;BME280;49837;57.280;27.070;2023-07-13T00:34:19;99554.02;;;8.22;95.17
63691;BME280;49837;57.280;27.070;2023-07-13T00:35:19;99551.26;;;8.22;95.24
63691;BME280;49837;57.280;27.070;2023-07-13T00:36:19;99552.08;;;8.2;95.31
63691;BME280;49837;57.280;27.070;2023-07-13T00:37:20;99548.91;;;8.15;95.71
63691;BME280;49837;57.280;27.070;2023-07-13T00:38:20;99544.08;;;8.1;95.74
63691;BME280;49837;57.280;27.070;2023-07-13T00:39:20;99546.0;;;8.01;95.51
63691;BME280;49837;57.280;27.070;2023-07-13T00:40:21;99545.33;;;7.98;95.45
63691;BME280;49837;57.280;27.070;2023-07-13T00:41:22;99540.05;;;7.97;95.52
63691;BME280;49837;57.280;27.070;2023-07-13T00:42:22;99540.68;;;7.98;95.71
63691;BME280;49837;57.280;27.070;2023-07-13T00:43:25;99536.17;;;8.02;95.43
63691;BME280;49837;57.280;27.070;2023-07-13T00:44:23;99534.56;;;7.97;95.07
63691;BME280;49837;57.280;27.070;2023-07-13T00:47:27;99532.28;;;7.76;94.87
63691;BME280;49837;57.280;27.070;2023-07-13T00:49:32;99533.67;;;7.76;95.24
63691;BME280;49837;57.280;27.070;2023-07-13T00:50:31;99533.64;;;7.77;95.36
63691;BME280;49837;57.280;27.070;2023-07-13T00:52:35;99531.48;;;7.75;95.81
63691;BME280;49837;57.280;27.070;2023-07-13T00:53:34;99533.49;;;7.8;95.89
63691;BME280;49837;57.280;27.070;2023-07-13T00:54:37;99533.87;;;7.81;95.86
63691;BME280;49837;57.280;27.070;2023-07-13T00:55:36;99528.69;;;7.82;95.81
63691;BME280;49837;57.280;27.070;2023-07-13T00:56:36;99527.42;;;7.83;95.68
63691;BME280;49837;57.280;27.070;2023-07-13T00:57:36;99525.09;;;7.88;95.62
63691;BME280;49837;57.280;27.070;2023-07-13T00:58:36;99524.2;;;7.82;95.44
63691;BME280;49837;57.280;27.070;2023-07-13T00:59:39;99524.28;;;7.76;95.15
63691;BME280;49837;57.280;27.070;2023-07-13T01:00:38;99518.7;;;7.77;95.04
63691;BME280;49837;57.280;27.070;2023-07-13T01:01:37;99520.49;;;7.76;95.17
63691;BME280;49837;57.280;27.070;2023-07-13T01:02:40;99518.55;;;7.73;95.19
63691;BME280;49837;57.280;27.070;2023-07-13T01:03:38;99520.25;;;7.73;95.21
63691;BME280;49837;57.280;27.070;2023-07-13T01:04:39;99518.38;;;7.77;95.22
63691;BME280;49837;57.280;27.070;2023-07-13T01:05:39;99515.49;;;7.79;95.19
63691;BME280;49837;57.280;27.070;2023-07-13T01:06:41;99514.61;;;7.81;95.07
63691;BME280;49837;57.280;27.070;2023-07-13T01:07:41;99512.41;;;7.79;95.07
63691;BME280;49837;57.280;27.070;2023-07-13T01:08:41;99511.84;;;7.79;95.1
63691;BME280;49837;57.280;27.070;2023-07-13T01:09:41;99509.91;;;7.77;94.99
63691;BME280;49837;57.280;27.070;2023-07-13T01:10:51;99508.08;;;7.77;94.84
63691;BME280;49837;57.280;27.070;2023-07-13T01:11:43;99508.53;;;7.73;94.86
63691;BME280;49837;57.280;27.070;2023-07-13T01:12:44;99510.04;;;7.69;94.95
63691;BME280;49837;57.280;27.070;2023-07-13T01:13:44;99509.41;;;7.71;94.94
63691;BME280;49837;57.280;27.070;2023-07-13T01:14:44;99508.48;;;7.72;95.01
63691;BME280;49837;57.280;27.070;2023-07-13T01:15:47;99507.16;;;7.71;94.99
63691;BME280;49837;57.280;27.070;2023-07-13T01:16:46;99504.48;;;7.73;95.03
63691;BME280;49837;57.280;27.070;2023-07-13T01:17:46;99504.12;;;7.76;94.99
63691;BME280;49837;57.280;27.070;2023-07-13T01:18:46;99502.42;;;7.75;94.95
63691;BME280;49837;57.280;27.070;2023-07-13T01:19:46;99505.17;;;7.72;94.9
63691;BME280;49837;57.280;27.070;2023-07-13T01:21:50;99503.03;;;7.7;95.12
63691;BME280;49837;57.280;27.070;2023-07-13T01:22:49;99502.02;;;7.71;95.26
63691;BME280;49837;57.280;27.070;2023-07-13T01:23:50;99501.62;;;7.74;95.34
63691;BME280;49837;57.280;27.070;2023-07-13T01:24:51;99497.92;;;7.7;95.38
63691;BME280;49837;57.280;27.070;2023-07-13T01:25:52;99502.36;;;7.74;95.19
63691;BME280;49837;57.280;27.070;2023-07-13T01:26:51;99497.56;;;7.79;94.94
63691;BME280;49837;57.280;27.070;2023-07-13T01:27:51;99499.78;;;7.85;94.76
63691;BME280;49837;57.280;27.070;2023-07-13T01:28:52;99498.17;;;7.81;94.64
63691;BME280;49837;57.280;27.070;2023-07-13T01:29:53;99496.12;;;7.86;94.57
63691;BME280;49837;57.280;27.070;2023-07-13T01:30:55;99496.95;;;7.85;94.59
63691;BME280;49837;57.280;27.070;2023-07-13T01:31:53;99493.33;;;7.85;94.43
63691;BME280;49837;57.280;27.070;2023-07-13T01:32:53;99496.69;;;7.77;94.31
63691;BME280;49837;57.280;27.070;2023-07-13T01:33:54;99494.39;;;7.73;94.44
63691;BME280;49837;57.280;27.070;2023-07-13T01:34:54;99495.02;;;7.75;94.59
63691;BME280;49837;57.280;27.070;2023-07-13T01:35:55;99491.83;;;7.73;94.61
63691;BME280;49837;57.280;27.070;2023-07-13T01:36:55;99494.94;;;7.78;94.65
63691;BME280;49837;57.280;27.070;2023-07-13T01:37:55;99496.22;;;7.85;94.55
63691;BME280;49837;57.280;27.070;2023-07-13T01:38:56;99493.84;;;7.87;94.4
63691;BME280;49837;57.280;27.070;2023-07-13T01:39:56;99490.02;;;7.87;94.32
63691;BME280;49837;57.280;27.070;2023-07-13T01:40:57;99492.55;;;7.86;94.33
63691;BME280;49837;57.280;27.070;2023-07-13T01:41:58;99490.38;;;7.86;94.48
63691;BME280;49837;57.280;27.070;2023-07-13T01:42:58;99485.44;;;7.87;94.63
63691;BME280;49837;57.280;27.070;2023-07-13T01:43:58;99484.12;;;7.9;94.51
63691;BME280;49837;57.280;27.070;2023-07-13T01:44:58;99479.77;;;7.88;94.44
63691;BME280;49837;57.280;27.070;2023-07-13T01:45:58;99479.96;;;7.87;94.62
63691;BME280;49837;57.280;27.070;2023-07-13T01:47:01;99480.09;;;7.86;94.92
63691;BME280;49837;57.280;27.070;2023-07-13T01:48:01;99476.52;;;7.89;95.08
63691;BME280;49837;57.280;27.070;2023-07-13T01:49:01;99477.71;;;7.9;95.03
63691;BME280;49837;57.280;27.070;2023-07-13T01:50:02;99476.91;;;7.9;94.89
63691;BME280;49837;57.280;27.070;2023-07-13T01:51:02;99476.97;;;7.87;95.03
63691;BME280;49837;57.280;27.070;2023-07-13T01:52:03;99480.53;;;7.88;95.05
63691;BME280;49837;57.280;27.070;2023-07-13T01:53:03;99478.47;;;7.9;94.95
63691;BME280;49837;57.280;27.070;2023-07-13T01:54:03;99477.64;;;7.91;94.86
63691;BME280;49837;57.280;27.070;2023-07-13T01:55:05;99476.88;;;7.88;94.91
63691;BME280;49837;57.280;27.070;2023-07-13T01:56:04;99481.55;;;7.87;95.02
63691;BME280;49837;57.280;27.070;2023-07-13T01:57:05;99477.55;;;7.91;94.91
63691;BME280;49837;57.280;27.070;2023-07-13T01:58:05;99479.07;;;7.9;94.78
63691;BME280;49837;57.280;27.070;2023-07-13T01:59:05;99479.41;;;7.9;94.76
63691;BME280;49837;57.280;27.070;2023-07-13T02:00:08;99483.09;;;7.88;94.64
63691;BME280;49837;57.280;27.070;2023-07-13T02:01:06;99481.39;;;7.89;94.56
63691;BME280;49837;57.280;27.070;2023-07-13T02:02:06;99477.05;;;7.88;94.42
63691;BME280;49837;57.280;27.070;2023-07-13T02:03:07;99474.08;;;7.87;94.28
63691;BME280;49837;57.280;27.070;2023-07-13T02:04:07;99476.91;;;7.87;94.24
63691;BME280;49837;57.280;27.070;2023-07-13T02:05:08;99473.14;;;7.85;94.22
63691;BME280;49837;57.280;27.070;2023-07-13T02:06:08;99478.13;;;7.87;94.13
63691;BME280;49837;57.280;27.070;2023-07-13T02:07:09;99473.29;;;7.88;93.97
63691;BME280;49837;57.280;27.070;2023-07-13T02:08:09;99478.16;;;7.87;93.91
63691;BME280;49837;57.280;27.070;2023-07-13T02:09:09;99476.32;;;7.82;93.82
63691;BME280;49837;57.280;27.070;2023-07-13T02:10:10;99475.67;;;7.84;93.58
63691;BME280;49837;57.280;27.070;2023-07-13T02:11:10;99474.77;;;7.86;93.58
63691;BME280;49837;57.280;27.070;2023-07-13T02:12:10;99473.55;;;7.85;93.39
63691;BME280;49837;57.280;27.070;2023-07-13T02:13:12;99477.5;;;7.87;93.57
63691;BME280;49837;57.280;27.070;2023-07-13T02:14:11;99478.95;;;7.83;93.56
63691;BME280;49837;57.280;27.070;2023-07-13T02:15:12;99475.58;;;7.79;93.55
63691;BME280;49837;57.280;27.070;2023-07-13T02:16:12;99477.48;;;7.82;93.39
63691;BME280;49837;57.280;27.070;2023-07-13T02:17:13;99473.56;;;7.82;93.37
63691;BME280;49837;57.280;27.070;2023-07-13T02:18:13;99478.2;;;7.8;93.41
63691;BME280;49837;57.280;27.070;2023-07-13T02:19:13;99477.68;;;7.8;93.48
63691;BME280;49837;57.280;27.070;2023-07-13T02:20:13;99475.95;;;7.8;93.61
63691;BME280;49837;57.280;27.070;2023-07-13T02:21:14;99474.16;;;7.82;93.53
63691;BME280;49837;57.280;27.070;2023-07-13T02:22:14;99474.55;;;7.85;93.3
63691;BME280;49837;57.280;27.070;2023-07-13T02:23:15;99466.52;;;7.87;93.23
63691;BME280;49837;57.280;27.070;2023-07-13T02:24:15;99468.5;;;7.87;93.39
63691;BME280;49837;57.280;27.070;2023-07-13T02:25:16;99466.7;;;7.87;93.36
63691;BME280;49837;57.280;27.070;2023-07-13T02:26:16;99464.06;;;7.89;93.37
63691;BME280;49837;57.280;27.070;2023-07-13T02:27:16;99462.97;;;7.93;93.12
63691;BME280;49837;57.280;27.070;2023-07-13T02:28:17;99461.18;;;7.94;93.19
63691;BME280;49837;57.280;27.070;2023-07-13T02:29:17;99459.53;;;7.96;93.21
63691;BME280;49837;57.280;27.070;2023-07-13T02:30:18;99457.77;;;7.99;93.35
63691;BME280;49837;57.280;27.070;2023-07-13T02:31:18;99455.66;;;8.01;93.42
63691;BME280;49837;57.280;27.070;2023-07-13T02:32:18;99454.47;;;8.04;93.25
63691;BME280;49837;57.280;27.070;2023-07-13T02:33:19;99458.06;;;8.06;93.05
63691;BME280;49837;57.280;27.070;2023-07-13T02:34:19;99452.58;;;8.08;93.08
63691;BME280;49837;57.280;27.070;2023-07-13T02:35:19;99455.05;;;8.13;92.96
63691;BME280;49837;57.280;27.070;2023-07-13T02:36:20;99456.02;;;8.13;92.67
63691;BME280;49837;57.280;27.070;2023-07-13T02:37:20;99453.98;;;8.15;92.67
63691;BME280;49837;57.280;27.070;2023-07-13T02:38:20;99451.53;;;8.14;92.73
63691;BME280;49837;57.280;27.070;2023-07-13T02:39:21;99451.0;;;8.15;92.67
63691;BME280;49837;57.280;27.070;2023-07-13T02:40:22;99448.61;;;8.16;92.65
63691;BME280;49837;57.280;27.070;2023-07-13T02:41:22;99448.61;;;8.19;92.67
63691;BME280;49837;57.280;27.070;2023-07-13T02:42:22;99446.8;;;8.26;92.74
63691;BME280;49837;57.280;27.070;2023-07-13T02:43:22;99449.16;;;8.33;92.87
63691;BME280;49837;57.280;27.070;2023-07-13T02:44:23;99443.15;;;8.34;92.75
63691;BME280;49837;57.280;27.070;2023-07-13T02:45:23;99440.39;;;8.35;92.51
63691;BME280;49837;57.280;27.070;2023-07-13T02:46:24;99441.06;;;8.37;92.46
63691;BME280;49837;57.280;27.070;2023-07-13T02:47:24;99438.87;;;8.39;92.39
63691;BME280;49837;57.280;27.070;2023-07-13T02:48:24;99439.77;;;8.41;92.26
63691;BME280;49837;57.280;27.070;2023-07-13T02:49:25;99436.94;;;8.43;92.18
63691;BME280;49837;57.280;27.070;2023-07-13T02:50:25;99436.05;;;8.44;92.11
63691;BME280;49837;57.280;27.070;2023-07-13T02:51:26;99433.19;;;8.44;92.09
63691;BME280;49837;57.280;27.070;2023-07-13T02:52:26;99438.1;;;8.5;92.23
63691;BME280;49837;57.280;27.070;2023-07-13T02:53:26;99438.3;;;8.54;92.25
63691;BME280;49837;57.280;27.070;2023-07-13T02:54:27;99433.45;;;8.6;92.11
63691;BME280;49837;57.280;27.070;2023-07-13T02:55:27;99435.74;;;8.61;91.71
63691;BME280;49837;57.280;27.070;2023-07-13T02:56:29;99433.34;;;8.63;91.73
63691;BME280;49837;57.280;27.070;2023-07-13T02:57:28;99435.74;;;8.66;91.71
63691;BME280;49837;57.280;27.070;2023-07-13T02:58:28;99436.6;;;8.68;91.84
63691;BME280;49837;57.280;27.070;2023-07-13T02:59:29;99436.5;;;8.7;91.83
63691;BME280;49837;57.280;27.070;2023-07-13T03:00:29;99439.23;;;8.74;91.55
63691;BME280;49837;57.280;27.070;2023-07-13T03:01:30;99436.5;;;8.76;91.45
63691;BME280;49837;57.280;27.070;2023-07-13T03:02:30;99439.25;;;8.83;91.33
63691;BME280;49837;57.280;27.070;2023-07-13T03:03:30;99441.64;;;8.88;91.17
63691;BME280;49837;57.280;27.070;2023-07-13T03:04:31;99439.54;;;8.91;90.84
63691;BME280;49837;57.280;27.070;2023-07-13T03:05:31;99441.89;;;8.95;90.59
63691;BME280;49837;57.280;27.070;2023-07-13T03:06:32;99443.32;;;8.98;90.41
63691;BME280;49837;57.280;27.070;2023-07-13T03:07:32;99441.52;;;9.04;90.27
63691;BME280;49837;57.280;27.070;2023-07-13T03:08:32;99437.31;;;9.1;90.09
63691;BME280;49837;57.280;27.070;2023-07-13T03:09:33;99440.03;;;9.13;89.96
63691;BME280;49837;57.280;27.070;2023-07-13T03:10:33;99439.05;;;9.2;89.63
63691;BME280;49837;57.280;27.070;2023-07-13T03:11:34;99441.2;;;9.25;89.28
63691;BME280;49837;57.280;27.070;2023-07-13T03:12:34;99439.12;;;9.29;89.2
63691;BME280;49837;57.280;27.070;2023-07-13T03:13:34;99438.61;;;9.34;89.18
63691;BME280;49837;57.280;27.070;2023-07-13T03:14:35;99439.48;;;9.4;88.94
63691;BME280;49837;57.280;27.070;2023-07-13T03:15:35;99436.17;;;9.44;88.82
63691;BME280;49837;57.280;27.070;2023-07-13T03:16:36;99435.26;;;9.49;88.77
63691;BME280;49837;57.280;27.070;2023-07-13T03:17:36;99435.04;;;9.54;88.5
63691;BME280;49837;57.280;27.070;2023-07-13T03:18:37;99437.84;;;9.59;88.18
63691;BME280;49837;57.280;27.070;2023-07-13T03:19:37;99439.98;;;9.67;87.85
63691;BME280;49837;57.280;27.070;2023-07-13T03:20:37;99442.66;;;9.78;87.57
63691;BME280;49837;57.280;27.070;2023-07-13T03:21:38;99447.39;;;9.85;87.24
63691;BME280;49837;57.280;27.070;2023-07-13T03:22:38;99448.62;;;9.96;86.95
63691;BME280;49837;57.280;27.070;2023-07-13T03:23:38;99447.58;;;10.04;86.6
63691;BME280;49837;57.280;27.070;2023-07-13T03:24:39;99446.61;;;10.05;86.26
63691;BME280;49837;57.280;27.070;2023-07-13T03:25:39;99450.34;;;10.12;85.92
63691;BME280;49837;57.280;27.070;2023-07-13T03:26:40;99450.09;;;10.18;85.76
63691;BME280;49837;57.280;27.070;2023-07-13T03:27:40;99444.34;;;10.21;85.65
63691;BME280;49837;57.280;27.070;2023-07-13T03:28:41;99443.03;;;10.22;85.58
63691;BME280;49837;57.280;27.070;2023-07-13T03:29:41;99439.61;;;10.3;85.49
63691;BME280;49837;57.280;27.070;2023-07-13T03:30:42;99440.16;;;10.33;85.39
63691;BME280;49837;57.280;27.070;2023-07-13T03:31:42;99438.4;;;10.41;85.35
63691;BME280;49837;57.280;27.070;2023-07-13T03:32:42;99433.86;;;10.46;85.27
63691;BME280;49837;57.280;27.070;2023-07-13T03:33:43;99430.91;;;10.56;85.04
63691;BME280;49837;57.280;27.070;2023-07-13T03:34:43;99429.75;;;10.82;84.72
63691;BME280;49837;57.280;27.070;2023-07-13T03:35:43;99428.06;;;10.98;83.69
63691;BME280;49837;57.280;27.070;2023-07-13T03:36:44;99428.28;;;10.99;83.19
63691;BME280;49837;57.280;27.070;2023-07-13T03:37:44;99428.35;;;11.05;82.79
63691;BME280;49837;57.280;27.070;2023-07-13T03:38:49;99430.53;;;11.11;82.74
63691;BME280;49837;57.280;27.070;2023-07-13T03:39:47;99431.48;;;11.16;82.64
63691;BME280;49837;57.280;27.070;2023-07-13T03:40:47;99427.55;;;11.18;82.67
63691;BME280;49837;57.280;27.070;2023-07-13T03:41:48;99426.77;;;11.22;82.62
63691;BME280;49837;57.280;27.070;2023-07-13T03:42:48;99427.25;;;11.3;83.12
63691;BME280;49837;57.280;27.070;2023-07-13T03:43:49;99426.27;;;11.49;82.43
63691;BME280;49837;57.280;27.070;2023-07-13T03:44:49;99424.31;;;11.53;82.33
63691;BME280;49837;57.280;27.070;2023-07-13T03:45:49;99425.84;;;11.61;82.51
63691;BME280;49837;57.280;27.070;2023-07-13T03:46:50;99421.12;;;11.7;82.36
63691;BME280;49837;57.280;27.070;2023-07-13T03:47:50;99423.58;;;11.84;81.96
63691;BME280;49837;57.280;27.070;2023-07-13T03:48:51;99422.0;;;11.94;81.96
63691;BME280;49837;57.280;27.070;2023-07-13T03:49:51;99421.61;;;12.18;80.68
63691;BME280;49837;57.280;27.070;2023-07-13T03:50:52;99418.16;;;12.47;80.3
63691;BME280;49837;57.280;27.070;2023-07-13T03:51:52;99419.79;;;12.68;79.26
63691;BME280;49837;57.280;27.070;2023-07-13T03:52:52;99421.53;;;12.72;78.92
63691;BME280;49837;57.280;27.070;2023-07-13T03:53:53;99424.05;;;12.96;77.97
63691;BME280;49837;57.280;27.070;2023-07-13T03:54:53;99424.2;;;13.24;77.31
63691;BME280;49837;57.280;27.070;2023-07-13T03:55:54;99423.56;;;13.49;76.4
63691;BME280;49837;57.280;27.070;2023-07-13T03:56:54;99424.09;;;13.94;75.87
63691;BME280;49837;57.280;27.070;2023-07-13T03:58:58;99424.06;;;13.82;74.92
63691;BME280;49837;57.280;27.070;2023-07-13T03:59:59;99426.62;;;14.01;74.92
63691;BME280;49837;57.280;27.070;2023-07-13T04:01:01;99424.89;;;14.0;75.01
63691;BME280;49837;57.280;27.070;2023-07-13T04:02:01;99424.88;;;13.81;75.16
63691;BME280;49837;57.280;27.070;2023-07-13T04:03:00;99421.25;;;13.72;75.98
63691;BME280;49837;57.280;27.070;2023-07-13T04:04:01;99421.05;;;13.59;76.08
63691;BME280;49837;57.280;27.070;2023-07-13T04:05:02;99423.16;;;13.44;77.29
63691;BME280;49837;57.280;27.070;2023-07-13T04:06:03;99425.85;;;13.39;77.86
63691;BME280;49837;57.280;27.070;2023-07-13T04:07:02;99422.67;;;13.37;78.03
63691;BME280;49837;57.280;27.070;2023-07-13T04:08:03;99422.73;;;13.41;77.93
63691;BME280;49837;57.280;27.070;2023-07-13T04:09:04;99422.11;;;13.5;77.82
63691;BME280;49837;57.280;27.070;2023-07-13T04:10:04;99423.76;;;13.63;77.49
63691;BME280;49837;57.280;27.070;2023-07-13T04:11:04;99426.22;;;13.72;77.5
63691;BME280;49837;57.280;27.070;2023-07-13T04:12:05;99427.58;;;13.82;77.1
63691;BME280;49837;57.280;27.070;2023-07-13T04:13:05;99425.34;;;13.98;76.62
63691;BME280;49837;57.280;27.070;2023-07-13T04:14:05;99423.81;;;14.03;77.01
63691;BME280;49837;57.280;27.070;2023-07-13T04:15:07;99423.77;;;14.13;77.19
63691;BME280;49837;57.280;27.070;2023-07-13T04:16:06;99424.92;;;14.25;76.78
63691;BME280;49837;57.280;27.070;2023-07-13T04:17:07;99422.73;;;14.43;76.52
63691;BME280;49837;57.280;27.070;2023-07-13T04:18:07;99418.25;;;14.63;75.45
63691;BME280;49837;57.280;27.070;2023-07-13T04:19:09;99417.2;;;14.72;75.21
63691;BME280;49837;57.280;27.070;2023-07-13T04:20:09;99419.43;;;14.65;75.21
63691;BME280;49837;57.280;27.070;2023-07-13T04:21:09;99415.72;;;14.76;75.37
63691;BME280;49837;57.280;27.070;2023-07-13T04:22:09;99415.61;;;14.92;74.3
63691;BME280;49837;57.280;27.070;2023-07-13T04:23:10;99418.72;;;14.95;73.85
63691;BME280;49837;57.280;27.070;2023-07-13T04:24:10;99421.28;;;15.01;73.48
63691;BME280;49837;57.280;27.070;2023-07-13T04:25:10;99419.15;;;15.02;73.54
63691;BME280;49837;57.280;27.070;2023-07-13T04:26:11;99421.22;;;15.12;73.68
63691;BME280;49837;57.280;27.070;2023-07-13T04:27:11;99419.81;;;15.26;72.68
63691;BME280;49837;57.280;27.070;2023-07-13T04:28:12;99422.35;;;15.31;72.43
63691;BME280;49837;57.280;27.070;2023-07-13T04:29:12;99421.31;;;15.19;72.53
63691;BME280;49837;57.280;27.070;2023-07-13T04:30:13;99419.41;;;15.19;72.18
63691;BME280;49837;57.280;27.070;2023-07-13T04:31:13;99423.16;;;15.29;71.58
63691;BME280;49837;57.280;27.070;2023-07-13T04:32:14;99424.62;;;15.45;72.54
63691;BME280;49837;57.280;27.070;2023-07-13T04:33:14;99422.22;;;15.45;71.62
63691;BME280;49837;57.280;27.070;2023-07-13T04:34:15;99418.59;;;15.54;70.33
63691;BME280;49837;57.280;27.070;2023-07-13T04:35:15;99423.11;;;15.46;69.56
63691;BME280;49837;57.280;27.070;2023-07-13T04:36:16;99421.14;;;15.59;69.87
63691;BME280;49837;57.280;27.070;2023-07-13T04:37:16;99418.05;;;15.74;71.04
63691;BME280;49837;57.280;27.070;2023-07-13T04:38:16;99419.12;;;15.93;70.54
63691;BME280;49837;57.280;27.070;2023-07-13T04:39:17;99416.66;;;16.0;70.31
63691;BME280;49837;57.280;27.070;2023-07-13T04:40:18;99416.38;;;15.74;69.15
63691;BME280;49837;57.280;27.070;2023-07-13T04:41:18;99418.75;;;15.57;69.53
63691;BME280;49837;57.280;27.070;2023-07-13T04:42:18;99420.5;;;15.6;70.17
63691;BME280;49837;57.280;27.070;2023-07-13T04:43:19;99421.36;;;15.59;69.76
63691;BME280;49837;57.280;27.070;2023-07-13T04:44:19;99421.77;;;15.54;70.48
63691;BME280;49837;57.280;27.070;2023-07-13T04:45:20;99425.29;;;15.57;70.77
63691;BME280;49837;57.280;27.070;2023-07-13T04:46:20;99421.03;;;15.66;70.82
63691;BME280;49837;57.280;27.070;2023-07-13T04:47:21;99421.61;;;15.54;70.76
63691;BME280;49837;57.280;27.070;2023-07-13T04:48:21;99422.77;;;15.41;71.07
63691;BME280;49837;57.280;27.070;2023-07-13T04:49:22;99426.39;;;15.41;71.06
63691;BME280;49837;57.280;27.070;2023-07-13T04:50:22;99424.07;;;15.48;70.94
63691;BME280;49837;57.280;27.070;2023-07-13T04:51:22;99423.3;;;15.61;71.18
63691;BME280;49837;57.280;27.070;2023-07-13T04:52:23;99425.42;;;15.62;71.45
63691;BME280;49837;57.280;27.070;2023-07-13T04:53:24;99422.74;;;15.61;70.82
63691;BME280;49837;57.280;27.070;2023-07-13T04:54:24;99423.78;;;15.57;71.67
63691;BME280;49837;57.280;27.070;2023-07-13T04:55:24;99422.81;;;15.66;71.62
63691;BME280;49837;57.280;27.070;2023-07-13T04:56:25;99422.54;;;15.75;71.25
63691;BME280;49837;57.280;27.070;2023-07-13T04:57:26;99424.22;;;15.81;71.47
63691;BME280;49837;57.280;27.070;2023-07-13T04:58:26;99420.84;;;15.84;70.77
63691;BME280;49837;57.280;27.070;2023-07-13T04:59:26;99421.44;;;15.78;70.79
63691;BME280;49837;57.280;27.070;2023-07-13T05:00:27;99422.12;;;15.76;71.2
63691;BME280;49837;57.280;27.070;2023-07-13T05:01:27;99424.1;;;15.83;71.86
63691;BME280;49837;57.280;27.070;2023-07-13T05:02:28;99420.83;;;15.87;72.11
63691;BME280;49837;57.280;27.070;2023-07-13T05:03:28;99420.78;;;16.08;72.02
63691;BME280;49837;57.280;27.070;2023-07-13T05:04:28;99422.47;;;16.19;71.09
63691;BME280;49837;57.280;27.070;2023-07-13T05:05:29;99424.0;;;16.25;71.76
63691;BME280;49837;57.280;27.070;2023-07-13T05:06:29;99422.35;;;16.32;70.98
63691;BME280;49837;57.280;27.070;2023-07-13T05:07:30;99426.59;;;16.24;70.48
63691;BME280;49837;57.280;27.070;2023-07-13T05:08:30;99426.36;;;16.37;70.18
63691;BME280;49837;57.280;27.070;2023-07-13T05:09:31;99430.48;;;16.55;70.33
63691;BME280;49837;57.280;27.070;2023-07-13T05:10:31;99428.77;;;16.73;70.18
63691;BME280;49837;57.280;27.070;2023-07-13T05:11:32;99427.95;;;16.82;68.0
63691;BME280;49837;57.280;27.070;2023-07-13T05:12:32;99431.97;;;16.94;69.23
63691;BME280;49837;57.280;27.070;2023-07-13T05:13:33;99427.83;;;17.03;67.46
63691;BME280;49837;57.280;27.070;2023-07-13T05:14:33;99429.0;;;16.93;66.45
63691;BME280;49837;57.280;27.070;2023-07-13T05:15:33;99430.98;;;16.92;66.06
63691;BME280;49837;57.280;27.070;2023-07-13T05:16:34;99425.38;;;16.81;67.13
63691;BME280;49837;57.280;27.070;2023-07-13T05:17:34;99429.87;;;16.72;67.64
63691;BME280;49837;57.280;27.070;2023-07-13T05:18:35;99429.22;;;16.73;68.06
63691;BME280;49837;57.280;27.070;2023-07-13T05:19:36;99424.09;;;16.76;67.18
63691;BME280;49837;57.280;27.070;2023-07-13T05:20:36;99430.19;;;16.72;67.57
63691;BME280;49837;57.280;27.070;2023-07-13T05:21:36;99428.72;;;16.79;66.75
63691;BME280;49837;57.280;27.070;2023-07-13T05:22:37;99427.33;;;16.87;66.5
63691;BME280;49837;57.280;27.070;2023-07-13T05:23:37;99428.5;;;16.87;66.2
63691;BME280;49837;57.280;27.070;2023-07-13T05:24:38;99430.12;;;16.88;66.35
63691;BME280;49837;57.280;27.070;2023-07-13T05:25:39;99427.9;;;17.02;66.3
63691;BME280;49837;57.280;27.070;2023-07-13T05:26:39;99427.58;;;17.09;66.1